Time;durP1;ratioP1;P1;durP2;ratioP2;P2;SDS_P1;SDS_P2;PMS_P1;PMS_P2;Temp;Humidity;BMP_temperature;BMP_pressure;BME280_temperature;BME280_humidity;BME280_pressure;Samples;Min_cycle;Max_cycle;Signal;HPM_P1;HPM_P2
2022/09/15 00:01:52;;;;;;;6.70;4.30;;;;;;;23.65;61.60;97748.91;7005082;28;20258;-81
2022/09/15 00:05:14;;;;;;;10.30;5.13;;;;;;;23.63;61.54;97728.31;7005108;28;20214;-81
2022/09/15 00:08:36;;;;;;;7.60;4.07;;;;;;;23.53;61.89;97743.16;7003895;28;20233;-82
2022/09/15 00:11:59;;;;;;;6.30;3.40;;;;;;;23.42;62.88;97732.72;7004898;28;20355;-80
2022/09/15 00:15:21;;;;;;;4.57;3.20;;;;;;;23.72;61.75;97723.69;7004623;28;20211;-81
2022/09/15 00:18:44;;;;;;;6.03;2.90;;;;;;;23.81;61.09;97724.53;7003653;28;20600;-81
2022/09/15 00:22:06;;;;;;;5.43;3.40;;;;;;;22.64;64.59;97733.16;7003944;28;20292;-80
2022/09/15 00:25:27;;;;;;;4.30;3.67;;;;;;;22.80;65.04;97723.47;7002924;28;20305;-81
2022/09/15 00:28:51;;;;;;;91.07;35.53;;;;;;;22.80;65.21;97712.47;7003276;28;20194;-80
2022/09/15 00:32:12;;;;;;;297.43;107.20;;;;;;;23.36;63.37;97723.78;7004003;28;20286;-81
2022/09/15 00:35:36;;;;;;;9.70;5.17;;;;;;;23.57;62.55;97715.81;7003659;28;20289;-81
2022/09/15 00:38:58;;;;;;;4.93;3.13;;;;;;;23.41;61.76;97706.31;7002917;28;20215;-81
2022/09/15 00:42:21;;;;;;;3.33;2.70;;;;;;;23.26;62.44;97732.25;7004053;28;20239;-81
2022/09/15 00:45:44;;;;;;;4.87;3.17;;;;;;;23.04;64.01;97721.25;7003658;28;20235;-81
2022/09/15 00:49:15;;;;;;;4.97;3.20;;;;;;;23.18;63.71;97726.72;7002963;28;20218;-81
2022/09/15 00:52:41;;;;;;;5.13;3.00;;;;;;;23.13;63.54;97713.06;7003566;28;20192;-81
2022/09/15 00:56:04;;;;;;;5.60;2.67;;;;;;;23.19;63.08;97684.34;7003282;28;20359;-81
2022/09/15 00:59:29;;;;;;;3.47;2.70;;;;;;;23.10;63.90;97714.50;7002329;28;20207;-81
2022/09/15 01:02:52;;;;;;;5.57;3.30;;;;;;;23.23;63.59;97710.91;7002885;28;20277;-81
2022/09/15 01:06:17;;;;;;;5.47;2.90;;;;;;;23.25;64.03;97714.16;7003130;28;20231;-81
2022/09/15 01:09:41;;;;;;;3.80;2.50;;;;;;;22.99;64.33;97717.78;7002687;28;20218;-80
2022/09/15 01:13:07;;;;;;;5.43;2.70;;;;;;;23.02;64.61;97712.47;7003063;28;20263;-80
2022/09/15 01:16:35;;;;;;;3.17;2.83;;;;;;;23.15;64.45;97725.38;7002752;28;20698;-81
2022/09/15 01:20:15;;;;;;;4.40;3.20;;;;;;;23.43;63.65;97710.38;7002131;28;20619;-81
2022/09/15 01:24:33;;;;;;;4.63;3.67;;;;;;;23.50;62.85;97704.44;7021571;28;20240;-81
2022/09/15 01:28:28;;;;;;;3.37;2.80;;;;;;;23.44;63.33;97711.22;7029815;28;20275;-81
2022/09/15 01:35:44;;;;;;;3.30;3.00;;;;;;;23.39;62.82;97703.91;7030484;28;20183;-81
2022/09/15 01:39:12;;;;;;;4.23;2.87;;;;;;;23.33;62.76;97694.16;7030055;28;20326;-82
2022/09/15 01:42:34;;;;;;;5.73;2.30;;;;;;;23.48;61.56;97685.50;7030556;28;20189;-81
2022/09/15 01:45:57;;;;;;;4.37;2.20;;;;;;;23.63;60.80;97679.59;7029725;28;20229;-81
2022/09/15 01:49:22;;;;;;;2.90;2.20;;;;;;;23.68;59.73;97675.91;7030171;28;20213;-80
2022/09/15 01:52:47;;;;;;;2.40;2.20;;;;;;;23.76;59.91;97672.38;7031133;28;20189;-81
2022/09/15 01:56:10;;;;;;;2.73;1.90;;;;;;;23.88;58.75;97670.69;7030463;28;20228;-80
2022/09/15 01:59:33;;;;;;;2.13;1.73;;;;;;;23.93;58.64;97669.72;7030375;28;20220;-81
2022/09/15 02:02:57;;;;;;;4.87;2.30;;;;;;;23.82;58.93;97680.19;7030982;28;20204;-80
2022/09/15 02:06:23;;;;;;;2.30;1.93;;;;;;;23.79;58.46;97663.50;7031261;28;20239;-81
2022/09/15 02:09:53;;;;;;;2.47;2.00;;;;;;;23.41;59.45;97673.31;7030344;28;20333;-80
2022/09/15 02:13:18;;;;;;;2.40;2.10;;;;;;;23.17;60.04;97670.06;7031123;28;20321;-80
2022/09/15 02:16:43;;;;;;;4.97;1.87;;;;;;;23.32;60.36;97686.22;7031351;28;20364;-81
2022/09/15 02:20:08;;;;;;;4.37;1.97;;;;;;;23.14;60.15;97671.47;7030710;28;20677;-81
2022/09/15 02:23:36;;;;;;;2.93;1.90;;;;;;;22.94;60.61;97690.41;7030799;28;20201;-80
2022/09/15 02:26:58;;;;;;;3.27;2.00;;;;;;;23.04;60.43;97677.25;7031102;28;20603;-80
2022/09/15 02:30:20;;;;;;;2.60;2.00;;;;;;;23.04;60.11;97688.25;7030804;28;20262;-80
2022/09/15 02:33:44;;;;;;;6.73;2.20;;;;;;;23.33;58.99;97668.56;7031859;28;20264;-80
2022/09/15 02:37:06;;;;;;;2.30;2.10;;;;;;;23.35;57.95;97667.13;7031524;28;20311;-81
2022/09/15 02:40:31;;;;;;;2.67;2.00;;;;;;;23.45;58.41;97686.16;7045156;28;20207;-81
2022/09/15 02:43:52;;;;;;;3.23;1.90;;;;;;;23.40;57.47;97638.69;7044243;28;20218;-81
2022/09/15 02:47:14;;;;;;;2.27;1.77;;;;;;;23.76;56.53;97659.44;7029402;28;20274;-80
2022/09/15 02:50:35;;;;;;;4.27;2.50;;;;;;;24.04;55.29;97665.56;7029363;28;20269;-80
2022/09/15 02:53:57;;;;;;;2.07;1.80;;;;;;;23.52;57.27;97653.47;7029739;28;20299;-81
2022/09/15 02:57:20;;;;;;;1.90;1.80;;;;;;;23.58;56.53;97624.69;7030487;28;20288;-81
2022/09/15 03:00:41;;;;;;;3.20;1.80;;;;;;;23.93;55.74;97659.53;7034158;28;20320;-81
2022/09/15 03:04:04;;;;;;;3.43;1.63;;;;;;;24.14;55.55;97655.06;7034625;28;20715;-80
2022/09/15 03:07:25;;;;;;;3.20;1.70;;;;;;;23.96;55.87;97672.66;7033629;28;20228;-81
2022/09/15 03:10:47;;;;;;;1.90;1.80;;;;;;;23.98;56.14;97675.91;7034369;28;20215;-81
2022/09/15 03:14:10;;;;;;;5.30;2.10;;;;;;;23.76;56.78;97677.88;7034580;28;20251;-81
2022/09/15 03:17:34;;;;;;;2.97;1.90;;;;;;;23.82;56.01;97671.91;7034735;28;20222;-81
2022/09/15 03:20:56;;;;;;;2.47;1.70;;;;;;;23.41;57.46;97665.88;7024206;28;20757;-80
2022/09/15 03:24:19;;;;;;;2.43;1.73;;;;;;;23.65;56.87;97660.03;7005048;28;20357;-81
2022/09/15 03:27:41;;;;;;;2.93;1.63;;;;;;;23.72;56.14;97652.13;7005343;28;20237;-81
2022/09/15 03:31:04;;;;;;;3.60;1.73;;;;;;;23.95;55.33;97661.97;7006025;28;20577;-80
2022/09/15 03:34:25;;;;;;;2.63;1.60;;;;;;;23.62;56.29;97660.66;7006157;28;20199;-81
2022/09/15 03:37:47;;;;;;;1.80;1.57;;;;;;;23.31;57.02;97652.38;7005309;28;20289;-81
2022/09/15 03:41:11;;;;;;;1.87;1.70;;;;;;;23.07;58.14;97662.88;7006101;28;20344;-81
2022/09/15 03:44:32;;;;;;;2.10;1.70;;;;;;;23.12;58.29;97659.19;7005829;28;20234;-81
2022/09/15 03:47:55;;;;;;;1.70;1.47;;;;;;;23.03;58.21;97658.31;7004826;28;20647;-80
2022/09/15 03:51:17;;;;;;;1.83;1.73;;;;;;;23.24;57.28;97621.75;7006144;28;20258;-81
2022/09/15 03:54:38;;;;;;;4.10;1.50;;;;;;;23.23;57.96;97649.56;7006219;28;20358;-80
2022/09/15 03:58:00;;;;;;;3.43;1.60;;;;;;;23.00;58.71;97676.25;7005344;28;20232;-81
2022/09/15 04:01:22;;;;;;;3.07;1.80;;;;;;;23.06;58.68;97666.75;7006117;28;20678;-81
2022/09/15 04:04:45;;;;;;;1.53;1.43;;;;;;;23.01;58.51;97666.06;7026140;28;20208;-81
2022/09/15 04:08:06;;;;;;;2.80;1.60;;;;;;;23.04;58.49;97670.94;7032084;28;20234;-80
2022/09/15 04:11:28;;;;;;;1.87;1.70;;;;;;;23.01;57.88;97633.88;7033400;28;20295;-80
2022/09/15 04:14:49;;;;;;;2.30;1.63;;;;;;;23.12;57.61;97668.25;7034566;28;20933;-81
2022/09/15 04:18:11;;;;;;;5.27;1.80;;;;;;;23.26;58.02;97665.47;7034875;28;20231;-81
2022/09/15 04:21:34;;;;;;;1.97;1.70;;;;;;;23.04;58.46;97663.50;7035240;28;20648;-81
2022/09/15 04:24:55;;;;;;;2.73;1.53;;;;;;;23.17;57.73;97672.81;7032557;28;20201;-81
2022/09/15 04:28:17;;;;;;;2.80;1.60;;;;;;;22.91;58.49;97671.81;7030911;28;20232;-80
2022/09/15 04:31:38;;;;;;;3.33;1.83;;;;;;;23.23;57.11;97653.16;7031921;28;20676;-81
2022/09/15 04:35:00;;;;;;;3.30;1.67;;;;;;;23.42;56.83;97656.50;7031833;28;20245;-81
2022/09/15 04:38:23;;;;;;;1.50;1.40;;;;;;;23.10;57.40;97664.19;7029765;28;20221;-81
2022/09/15 04:41:44;;;;;;;2.70;1.83;;;;;;;23.46;56.86;97665.75;7031112;28;20361;-81
2022/09/15 04:45:07;;;;;;;2.23;1.70;;;;;;;23.54;56.77;97659.47;7030176;28;20293;-81
2022/09/15 04:48:28;;;;;;;2.03;1.80;;;;;;;23.10;58.41;97632.00;7030850;28;20229;-81
2022/09/15 04:51:51;;;;;;;1.80;1.70;;;;;;;23.28;57.79;97657.69;7030984;28;20282;-81
2022/09/15 04:55:15;;;;;;;1.67;1.57;;;;;;;23.39;57.59;97648.06;7032404;28;20196;-84
2022/09/15 04:58:37;;;;;;;2.57;2.03;;;;;;;23.44;57.43;97672.69;7030955;28;20283;-76
2022/09/15 05:01:59;;;;;;;1.60;1.50;;;;;;;22.83;59.39;97673.34;7032667;28;20265;-78
2022/09/15 05:05:20;;;;;;;2.47;1.50;;;;;;;22.75;58.64;97671.34;7026613;28;20604;-78
2022/09/15 05:08:42;;;;;;;2.87;1.70;;;;;;;23.21;58.22;97679.34;7027146;28;20747;-78
2022/09/15 05:12:06;;;;;;;2.63;2.00;;;;;;;23.29;57.17;97662.06;7031746;28;20285;-79
2022/09/15 05:15:27;;;;;;;2.23;1.50;;;;;;;23.19;57.12;97671.38;7031411;28;20274;-79
2022/09/15 05:18:50;;;;;;;3.37;1.57;;;;;;;23.49;56.55;97672.56;7029015;28;20208;-78
2022/09/15 05:22:12;;;;;;;2.03;1.57;;;;;;;23.26;57.56;97690.22;7024084;28;20297;-79
2022/09/15 05:25:34;;;;;;;4.10;1.50;;;;;;;23.28;57.32;97680.53;7030587;28;20300;-78
2022/09/15 05:28:57;;;;;;;1.70;1.40;;;;;;;22.97;57.90;97684.31;7029687;28;20210;-78
2022/09/15 05:32:19;;;;;;;5.73;1.70;;;;;;;23.00;57.46;97673.50;7030314;28;20340;-78
2022/09/15 05:35:40;;;;;;;2.93;1.73;;;;;;;23.02;57.27;97656.69;7030192;28;20297;-78
2022/09/15 05:39:02;;;;;;;2.40;1.77;;;;;;;22.81;57.77;97672.84;7020021;28;20207;-78
2022/09/15 05:42:23;;;;;;;1.87;1.50;;;;;;;23.29;56.48;97684.91;7008023;28;20206;-77
2022/09/15 05:45:53;;;;;;;1.73;1.63;;;;;;;23.14;57.15;97693.47;7031277;28;20275;-77
2022/09/15 05:49:15;;;;;;;2.80;1.90;;;;;;;23.20;57.54;97686.75;7021202;28;20220;-77
2022/09/15 05:52:37;;;;;;;3.03;1.30;;;;;;;22.75;59.05;97687.84;7028333;28;20251;-77
2022/09/15 05:56:00;;;;;;;3.23;1.73;;;;;;;22.47;59.36;97656.06;7029853;28;20222;-77
2022/09/15 05:59:21;;;;;;;3.40;2.00;;;;;;;23.07;57.98;97678.56;7029650;28;20296;-77
2022/09/15 06:02:44;;;;;;;1.97;1.70;;;;;;;22.80;59.62;97686.91;7030553;28;20321;-78
2022/09/15 06:06:06;;;;;;;2.07;1.23;;;;;;;23.30;57.30;97680.22;7029905;28;20221;-77
2022/09/15 06:09:28;;;;;;;5.13;1.70;;;;;;;23.36;57.16;97685.25;7029754;28;20324;-78
2022/09/15 06:12:50;;;;;;;2.27;1.63;;;;;;;23.17;57.48;97681.06;7030346;28;20270;-77
2022/09/15 06:16:13;;;;;;;2.40;1.73;;;;;;;23.31;57.25;97671.63;7055763;28;20222;-77
2022/09/15 06:19:36;;;;;;;2.87;1.50;;;;;;;23.78;56.29;97687.44;7028803;28;20229;-77
2022/09/15 06:22:58;;;;;;;1.77;1.50;;;;;;;23.49;56.51;97700.09;7029464;28;20265;-77
2022/09/15 06:26:20;;;;;;;4.33;1.40;;;;;;;23.93;55.42;97695.31;7027830;28;20236;-77
2022/09/15 06:29:41;;;;;;;4.20;1.50;;;;;;;23.87;55.79;97699.34;7029715;28;20727;-78
2022/09/15 06:33:03;;;;;;;1.93;1.73;;;;;;;23.47;56.15;97663.78;7035228;28;20552;-78
2022/09/15 06:36:28;;;;;;;1.37;1.27;;;;;;;23.73;56.73;97698.59;7035662;28;20284;-77
2022/09/15 06:39:49;;;;;;;4.20;1.53;;;;;;;23.45;56.21;97694.41;7034980;28;20265;-77
2022/09/15 06:43:11;;;;;;;4.43;2.37;;;;;;;23.23;58.81;97702.66;7033179;28;20959;-77
2022/09/15 06:46:32;;;;;;;2.37;1.90;;;;;;;23.35;58.88;97710.31;7009323;28;20282;-77
2022/09/15 06:49:54;;;;;;;3.60;1.70;;;;;;;22.75;60.15;97709.84;7033356;28;20745;-77
2022/09/15 06:53:17;;;;;;;4.83;1.87;;;;;;;22.69;61.77;97730.31;7035201;28;20566;-77
2022/09/15 06:56:38;;;;;;;3.07;1.60;;;;;;;22.88;61.58;97739.22;7034582;28;20231;-77
2022/09/15 07:00:00;;;;;;;4.00;1.93;;;;;;;22.54;62.97;97746.31;7033716;28;20220;-77
2022/09/15 07:03:22;;;;;;;3.83;1.80;;;;;;;22.73;62.83;97734.03;7034388;28;20211;-77
2022/09/15 07:06:44;;;;;;;2.40;1.77;;;;;;;22.77;62.31;97739.75;7032940;28;20267;-76
2022/09/15 07:10:07;;;;;;;3.63;1.90;;;;;;;23.10;62.02;97744.75;7034369;28;20568;-76
2022/09/15 07:13:29;;;;;;;2.83;1.77;;;;;;;22.53;63.85;97756.47;7034988;28;20293;-76
2022/09/15 07:16:51;;;;;;;4.73;2.87;;;;;;;22.66;63.76;97746.59;7029079;28;20263;-76
2022/09/15 07:20:12;;;;;;;3.77;2.63;;;;;;;22.80;63.14;97747.38;7033571;28;20290;-76
2022/09/15 07:23:34;;;;;;;3.37;2.40;;;;;;;22.52;64.66;97756.78;7032626;28;20348;-76
2022/09/15 07:26:57;;;;;;;3.87;1.80;;;;;;;22.47;64.87;97752.19;7034226;28;20314;-77
2022/09/15 07:30:19;;;;;;;4.17;1.87;;;;;;;22.57;65.10;97756.66;7033233;28;20216;-76
2022/09/15 07:33:41;;;;;;;4.27;1.90;;;;;;;22.91;63.90;97760.59;7034118;28;20217;-77
2022/09/15 07:37:02;;;;;;;2.90;1.80;;;;;;;23.39;62.12;97749.84;7033972;28;20354;-77
2022/09/15 07:40:24;;;;;;;3.53;2.10;;;;;;;23.45;61.62;97751.34;7033003;28;20202;-77
2022/09/15 07:43:48;;;;;;;1.60;1.50;;;;;;;23.58;61.24;97765.03;7033564;28;20352;-78
2022/09/15 07:47:10;;;;;;;2.30;2.10;;;;;;;23.40;61.19;97762.47;7033187;28;20359;-78
2022/09/15 07:50:31;;;;;;;5.37;2.27;;;;;;;23.53;61.07;97772.59;7032685;28;20360;-77
2022/09/15 07:53:53;;;;;;;1.97;1.50;;;;;;;23.25;60.96;97766.41;7034089;28;20225;-77
2022/09/15 07:57:15;;;;;;;2.17;1.47;;;;;;;23.56;61.11;97767.31;7033665;28;20229;-77
2022/09/15 08:00:38;;;;;;;1.93;1.73;;;;;;;23.67;61.41;97771.41;7032442;28;20291;-77
2022/09/15 08:03:59;;;;;;;3.43;1.50;;;;;;;23.82;60.79;97770.19;7032502;28;20200;-77
2022/09/15 08:07:21;;;;;;;2.20;1.57;;;;;;;23.65;60.45;97786.63;7032350;28;20532;-76
2022/09/15 08:10:42;;;;;;;2.17;1.50;;;;;;;23.79;59.10;97777.16;7032331;28;20284;-77
2022/09/15 08:14:04;;;;;;;2.63;1.37;;;;;;;23.73;60.12;97783.91;7012790;28;20281;-77
2022/09/15 08:17:27;;;;;;;2.37;1.50;;;;;;;23.66;60.22;97786.28;7032269;28;20270;-77
2022/09/15 08:20:48;;;;;;;1.77;1.50;;;;;;;23.59;60.15;97790.63;7032614;28;20303;-77
2022/09/15 08:24:10;;;;;;;2.90;1.43;;;;;;;23.55;60.61;97790.44;7030933;28;20294;-77
2022/09/15 08:27:31;;;;;;;2.00;1.50;;;;;;;23.28;61.68;97808.97;7036169;28;20236;-76
2022/09/15 08:30:59;;;;;;;2.00;1.40;;;;;;;22.90;63.09;97805.69;7040607;28;20303;-77
2022/09/15 08:34:22;;;;;;;2.53;1.33;;;;;;;23.07;61.62;97810.56;7006928;28;20216;-77
2022/09/15 08:37:44;;;;;;;8.23;4.47;;;;;;;22.68;63.71;97808.38;7029915;28;20317;-78
2022/09/15 08:41:08;;;;;;;4.50;3.40;;;;;;;23.20;62.81;97812.47;7019985;28;20209;-79
2022/09/15 08:44:36;;;;;;;2.97;1.50;;;;;;;23.39;60.97;97818.63;7003988;28;20307;-77
2022/09/15 08:48:00;;;;;;;1.40;1.30;;;;;;;23.41;61.66;97813.63;7003005;28;20233;-77
2022/09/15 08:51:26;;;;;;;1.70;1.60;;;;;;;23.47;60.37;97820.63;7031765;28;20279;-77
2022/09/15 08:54:48;;;;;;;1.60;1.50;;;;;;;23.46;60.54;97795.06;7024436;28;20288;-78
2022/09/15 08:58:14;;;;;;;2.73;1.93;;;;;;;23.56;61.26;97821.53;7003792;28;20236;-76
2022/09/15 09:05:30;;;;;;;6.37;3.90;;;;;;;23.55;62.21;97819.91;7014812;28;20294;-80
2022/09/15 09:09:05;;;;;;;50.20;33.93;;;;;;;23.51;61.84;97816.97;7029988;28;20371;-76
2022/09/15 09:12:37;;;;;;;4.03;2.90;;;;;;;23.51;63.10;97810.63;7033310;28;20232;-77
2022/09/15 09:16:16;;;;;;;2.50;1.87;;;;;;;23.73;61.57;97827.94;7011735;28;20266;-77
2022/09/15 09:19:55;;;;;;;2.67;1.90;;;;;;;23.89;60.83;97817.44;7029051;28;20299;-77
2022/09/15 09:23:20;;;;;;;1.73;1.63;;;;;;;23.80;61.54;97827.53;7031545;28;20239;-78
2022/09/15 09:26:43;;;;;;;2.13;1.30;;;;;;;23.61;60.90;97821.41;7029987;28;20277;-77
2022/09/15 09:30:12;;;;;;;1.60;1.50;;;;;;;23.58;61.25;97816.50;7030377;28;20364;-77
2022/09/15 09:33:40;;;;;;;2.13;1.50;;;;;;;23.46;61.21;97817.06;7030867;28;20198;-78
2022/09/15 09:37:09;;;;;;;4.53;1.63;;;;;;;23.67;61.93;97820.94;7029120;28;20303;-77
2022/09/15 09:40:31;;;;;;;3.10;1.67;;;;;;;24.06;60.51;97820.28;7029965;28;20227;-78
2022/09/15 09:43:55;;;;;;;1.97;1.53;;;;;;;24.15;59.82;97808.19;7030315;28;20292;-78
2022/09/15 09:47:17;;;;;;;2.20;1.77;;;;;;;24.07;60.77;97803.44;7033307;28;20261;-78
2022/09/15 09:50:41;;;;;;;6.03;2.10;;;;;;;23.60;62.31;97790.31;7032044;28;20659;-77
2022/09/15 09:54:05;;;;;;;1.80;1.40;;;;;;;23.45;62.39;97793.44;7029829;28;20203;-78
2022/09/15 09:57:29;;;;;;;3.23;1.90;;;;;;;23.31;63.59;97808.38;7029465;28;20316;-77
2022/09/15 10:00:53;;;;;;;3.87;2.07;;;;;;;23.22;63.28;97808.28;7030556;28;20235;-78
2022/09/15 10:04:18;;;;;;;9.00;2.07;;;;;;;22.80;64.83;97810.59;7028790;28;20205;-78
2022/09/15 10:07:42;;;;;;;2.27;1.53;;;;;;;22.89;64.98;97809.56;7018211;28;20221;-78
2022/09/15 10:11:07;;;;;;;4.97;1.70;;;;;;;22.81;66.22;97804.78;7028398;28;20198;-77
2022/09/15 10:14:31;;;;;;;1.83;1.70;;;;;;;22.82;66.28;97800.91;7028529;28;20298;-77
2022/09/15 10:17:54;;;;;;;1.17;1.07;;;;;;;22.54;66.98;97798.50;7025985;28;20312;-77
2022/09/15 10:21:17;;;;;;;2.47;1.50;;;;;;;22.73;65.91;97799.19;7031030;28;20212;-78
2022/09/15 10:24:39;;;;;;;1.03;0.93;;;;;;;22.64;66.27;97807.34;7008464;28;20266;-76
2022/09/15 10:28:10;;;;;;;1.23;1.13;;;;;;;22.05;66.91;97818.38;7027657;28;20300;-77
2022/09/15 10:31:32;;;;;;;2.10;1.60;;;;;;;22.10;67.09;97815.53;7055921;28;20206;-78
2022/09/15 10:35:01;;;;;;;2.10;1.30;;;;;;;21.76;66.20;97826.00;7032763;28;20208;-78
2022/09/15 10:38:30;;;;;;;4.23;1.60;;;;;;;21.83;66.36;97831.94;7030819;28;20231;-78
2022/09/15 10:41:58;;;;;;;2.70;1.40;;;;;;;21.85;65.38;97837.13;7030358;28;20259;-77
2022/09/15 10:45:26;;;;;;;2.33;1.70;;;;;;;21.79;65.69;97843.81;7030573;28;20556;-78
2022/09/15 10:48:58;;;;;;;2.07;1.90;;;;;;;21.95;65.32;97846.00;7028109;28;20355;-78
2022/09/15 10:52:28;;;;;;;5.20;2.30;;;;;;;21.60;65.50;97856.72;7029319;28;20354;-78
2022/09/15 10:55:56;;;;;;;3.40;2.43;;;;;;;21.28;66.46;97851.16;7029700;28;20704;-78
2022/09/15 10:59:31;;;;;;;5.97;2.83;;;;;;;21.59;65.69;97855.91;7029649;28;20340;-78
2022/09/15 11:03:15;;;;;;;4.17;2.80;;;;;;;21.64;65.15;97858.56;7029445;28;20201;-79
2022/09/15 11:06:42;;;;;;;2.77;2.40;;;;;;;21.42;65.20;97868.53;7007825;28;20311;-78
2022/09/15 11:10:12;;;;;;;6.07;2.60;;;;;;;21.43;64.95;97868.19;7023539;28;20290;-79
2022/09/15 11:13:40;;;;;;;2.67;2.47;;;;;;;21.01;65.53;97870.19;7027178;28;20271;-79
2022/09/15 11:17:18;;;;;;;3.73;2.97;;;;;;;20.99;65.66;97852.41;7028654;28;20231;-78
2022/09/15 11:20:52;;;;;;;5.07;3.60;;;;;;;20.88;66.06;97873.63;7034188;28;20345;-78
2022/09/15 11:24:33;;;;;;;4.10;3.70;;;;;;;21.10;65.15;97882.13;7034457;28;20193;-78
2022/09/15 11:28:00;;;;;;;4.20;3.80;;;;;;;21.10;65.70;97889.56;7033453;28;20214;-77
2022/09/15 11:31:25;;;;;;;4.43;3.70;;;;;;;21.30;64.64;97896.38;7034120;28;20261;-78
2022/09/15 11:34:52;;;;;;;3.53;3.23;;;;;;;21.27;64.81;97898.09;7016397;28;20193;-78
2022/09/15 11:38:22;;;;;;;3.80;3.50;;;;;;;21.30;64.54;97910.09;7026490;28;20247;-78
2022/09/15 11:41:48;;;;;;;4.83;3.80;;;;;;;21.10;64.64;97903.25;7031380;28;20773;-78
2022/09/15 11:45:15;;;;;;;5.67;3.77;;;;;;;21.28;64.68;97908.75;7033934;28;20211;-78
2022/09/15 11:48:41;;;;;;;3.73;3.40;;;;;;;20.98;64.01;97876.25;7027665;28;20231;-78
2022/09/15 11:52:06;;;;;;;5.17;3.17;;;;;;;21.12;63.63;97920.22;7033712;28;20739;-78
2022/09/15 11:55:34;;;;;;;4.40;2.97;;;;;;;21.30;63.55;97926.53;7030323;28;20772;-78
2022/09/15 11:59:06;;;;;;;3.57;3.20;;;;;;;21.18;64.40;97934.38;7032256;28;20215;-78
2022/09/15 12:02:33;;;;;;;3.50;3.20;;;;;;;20.88;64.62;97944.06;7033624;28;20296;-77
2022/09/15 12:05:57;;;;;;;3.23;3.00;;;;;;;20.80;64.54;97937.28;7028800;28;20691;-78
2022/09/15 12:09:20;;;;;;;3.70;3.33;;;;;;;20.78;63.59;97951.25;7032709;28;20234;-77
2022/09/15 12:12:43;;;;;;;3.40;3.10;;;;;;;20.98;64.12;97969.44;7033432;28;20193;-78
2022/09/15 12:16:05;;;;;;;3.20;2.90;;;;;;;21.10;62.48;97961.63;7033045;28;20240;-78
2022/09/15 12:19:42;;;;;;;4.50;3.43;;;;;;;21.15;63.14;97969.78;7032614;28;20759;-78
2022/09/15 12:23:12;;;;;;;6.50;3.80;;;;;;;21.16;63.15;97992.53;7024709;28;20232;-77
2022/09/15 12:26:34;;;;;;;3.73;2.87;;;;;;;20.82;62.87;97980.84;7033374;28;20259;-78
2022/09/15 12:29:57;;;;;;;3.93;3.10;;;;;;;21.01;63.81;97970.78;7038079;28;20317;-78
2022/09/15 12:33:44;;;;;;;3.60;3.30;;;;;;;21.75;62.70;97979.97;7053635;28;20194;-78
2022/09/15 12:37:11;;;;;;;4.50;3.53;;;;;;;21.77;62.10;97992.28;7026444;28;20224;-78
2022/09/15 12:40:35;;;;;;;3.37;3.03;;;;;;;21.82;61.76;97964.78;7033146;28;20333;-77
2022/09/15 12:43:58;;;;;;;4.17;3.23;;;;;;;22.35;60.39;97995.50;7032837;28;20210;-78
2022/09/15 12:47:27;;;;;;;3.57;2.80;;;;;;;22.44;59.86;98001.97;7031420;28;20248;-77
2022/09/15 12:50:53;;;;;;;5.20;2.90;;;;;;;22.36;59.21;98006.19;7030550;28;20223;-77
2022/09/15 12:54:22;;;;;;;5.63;3.43;;;;;;;22.23;58.88;97974.00;7031756;28;20248;-78
2022/09/15 12:57:51;;;;;;;4.90;3.30;;;;;;;22.11;57.66;97981.06;7028114;28;20230;-77
2022/09/15 13:01:47;;;;;;;4.53;3.33;;;;;;;22.52;57.53;97999.38;7019116;28;20196;-78
2022/09/15 13:05:10;;;;;;;5.47;3.40;;;;;;;21.70;58.35;98005.56;6929423;28;20204;-78
2022/09/15 13:08:49;;;;;;;4.73;3.23;;;;;;;21.52;59.24;98002.75;6916658;28;20267;-78
2022/09/15 13:12:15;;;;;;;6.23;3.93;;;;;;;21.63;59.80;98010.56;7002633;28;20212;-78
2022/09/15 13:15:41;;;;;;;7.67;3.97;;;;;;;21.24;60.55;97930.47;7016510;28;20282;-78
2022/09/15 13:19:11;;;;;;;7.53;5.23;;;;;;;21.69;60.43;97992.97;7030736;28;20227;-78
2022/09/15 13:22:36;;;;;;;4.90;4.50;;;;;;;21.63;59.81;97999.59;7026984;28;20199;-78
2022/09/15 13:25:59;;;;;;;7.13;5.30;;;;;;;21.73;61.15;98018.69;7030083;28;20316;-79
2022/09/15 13:29:23;;;;;;;6.33;4.40;;;;;;;21.91;59.58;98012.41;7030236;28;20235;-78
2022/09/15 13:32:51;;;;;;;5.17;4.50;;;;;;;21.96;60.00;98017.81;7029564;28;20307;-78
2022/09/15 13:36:23;;;;;;;6.10;4.63;;;;;;;21.99;57.95;98028.19;7030407;28;20238;-78
2022/09/15 13:40:00;;;;;;;7.07;4.80;;;;;;;22.16;58.98;98020.25;7030078;28;20338;-78
2022/09/15 13:43:40;;;;;;;8.10;5.13;;;;;;;21.84;58.83;98009.19;7015468;28;20203;-78
2022/09/15 13:47:11;;;;;;;6.13;4.93;;;;;;;21.80;57.74;97999.13;7003180;28;20272;-78
2022/09/15 13:50:35;;;;;;;8.87;4.03;;;;;;;21.82;57.12;98011.44;7001898;28;20326;-78
2022/09/15 13:53:58;;;;;;;8.17;4.03;;;;;;;21.85;58.13;98012.78;7003780;28;20300;-78
2022/09/15 13:57:19;;;;;;;5.17;3.63;;;;;;;22.16;55.91;97994.72;7003268;28;20233;-78
2022/09/15 14:00:53;;;;;;;3.87;3.47;;;;;;;21.88;56.43;97987.47;7003237;28;20212;-78
2022/09/15 14:04:18;;;;;;;4.10;3.47;;;;;;;22.54;55.66;97999.06;7017613;28;20187;-78
2022/09/15 14:07:39;;;;;;;3.80;3.10;;;;;;;22.33;54.33;98017.78;7018163;28;20230;-78
2022/09/15 14:11:03;;;;;;;4.50;2.87;;;;;;;22.93;55.19;98013.19;7010464;28;20227;-80
2022/09/15 14:14:36;;;;;;;3.37;2.93;;;;;;;22.78;54.47;98013.47;7029992;28;20220;-79
2022/09/15 14:17:58;;;;;;;5.33;3.90;;;;;;;22.48;56.01;98020.31;7025388;28;20222;-78
2022/09/15 14:21:22;;;;;;;8.13;3.70;;;;;;;22.83;53.55;98013.41;7010512;28;20336;-78
2022/09/15 14:24:44;;;;;;;7.57;3.70;;;;;;;22.41;53.72;98019.84;7002195;28;20274;-78
2022/09/15 14:28:06;;;;;;;5.73;3.30;;;;;;;22.76;53.62;98024.78;7007706;28;20303;-78
2022/09/15 14:31:33;;;;;;;3.27;2.97;;;;;;;22.62;51.85;98007.44;7035875;28;20289;-78
2022/09/15 14:34:56;;;;;;;4.03;2.80;;;;;;;22.46;53.23;98024.47;7037297;28;20206;-78
2022/09/15 14:38:24;;;;;;;4.80;2.70;;;;;;;22.81;52.24;98021.94;7030520;28;20748;-78
2022/09/15 14:41:48;;;;;;;3.43;2.87;;;;;;;22.68;51.41;98024.66;7029555;28;20204;-78
2022/09/15 14:45:14;;;;;;;3.50;2.93;;;;;;;22.67;52.12;98012.03;7030360;28;20280;-78
2022/09/15 14:48:37;;;;;;;4.10;2.80;;;;;;;22.79;51.84;98009.59;7030121;28;20268;-77
2022/09/15 14:52:01;;;;;;;2.97;2.50;;;;;;;23.30;51.33;98004.81;7031139;28;20244;-78
2022/09/15 14:55:27;;;;;;;3.23;2.70;;;;;;;23.07;51.22;98011.28;7034113;28;20207;-79
2022/09/15 14:58:51;;;;;;;3.10;2.90;;;;;;;23.04;51.71;98003.63;7006681;28;20286;-78
2022/09/15 15:02:19;;;;;;;4.03;2.90;;;;;;;23.06;52.74;98021.47;7007218;28;20214;-78
2022/09/15 15:05:45;;;;;;;7.37;2.90;;;;;;;23.47;50.86;98007.72;7020380;28;20232;-78
2022/09/15 15:09:09;;;;;;;6.33;2.73;;;;;;;23.18;53.31;98026.50;7036922;28;20333;-78
2022/09/15 15:12:34;;;;;;;3.30;2.70;;;;;;;22.86;51.58;98001.78;7025068;28;20284;-78
2022/09/15 15:15:56;;;;;;;2.67;2.47;;;;;;;23.54;49.62;98014.47;7021099;28;20225;-78
2022/09/15 15:19:31;;;;;;;3.30;2.80;;;;;;;23.52;50.64;98019.47;7035065;28;20675;-78
2022/09/15 15:23:14;;;;;;;4.57;3.10;;;;;;;23.12;50.28;98023.00;7010917;28;20196;-78
2022/09/15 15:26:37;;;;;;;3.27;2.70;;;;;;;23.31;50.09;98026.50;7030945;28;20243;-79
2022/09/15 15:30:25;;;;;;;3.60;2.97;;;;;;;22.81;51.00;98010.09;7032221;28;20567;-78
2022/09/15 15:33:47;;;;;;;3.20;2.90;;;;;;;23.17;50.07;98033.09;7026139;28;20213;-78
2022/09/15 15:37:23;;;;;;;4.33;2.87;;;;;;;23.26;50.69;98028.53;7035963;28;20380;-78
2022/09/15 15:40:46;;;;;;;3.77;2.97;;;;;;;23.48;49.01;98040.44;7027827;28;20202;-78
2022/09/15 15:44:25;;;;;;;6.53;3.00;;;;;;;23.26;49.61;98029.34;7038713;28;20199;-79
2022/09/15 15:47:48;;;;;;;4.10;2.80;;;;;;;23.08;49.12;98027.47;7033882;28;20730;-79
2022/09/15 15:51:09;;;;;;;5.67;3.17;;;;;;;23.05;49.88;98030.00;7034256;28;20294;-79
2022/09/15 15:54:33;;;;;;;4.80;3.33;;;;;;;22.44;50.88;97999.22;7034247;28;20701;-79
2022/09/15 15:57:55;;;;;;;6.73;3.20;;;;;;;23.12;50.51;98028.50;7033052;28;20243;-79
2022/09/15 16:01:16;;;;;;;3.30;3.00;;;;;;;23.13;50.33;98037.56;7033851;28;20197;-79
2022/09/15 16:04:39;;;;;;;5.10;2.97;;;;;;;23.37;49.30;98043.72;7032562;28;20296;-79
2022/09/15 16:08:03;;;;;;;3.27;2.90;;;;;;;23.15;48.98;98038.91;7033033;28;20267;-79
2022/09/15 16:11:25;;;;;;;4.07;3.20;;;;;;;23.19;48.78;98037.19;7030187;28;20232;-79
2022/09/15 16:14:46;;;;;;;5.90;3.27;;;;;;;23.00;49.43;98024.59;7034515;28;20629;-79